sensor_id;sensor_type;location;lat;lon;timestamp;temperature;humidity
48019;DHT22;33786;48.690;9.562;2024-01-16T00:01:44;-1.00;99.90
48019;DHT22;33786;48.690;9.562;2024-01-16T00:04:11;-1.00;99.90
48019;DHT22;33786;48.690;9.562;2024-01-16T00:06:42;-0.90;99.90
48019;DHT22;33786;48.690;9.562;2024-01-16T00:09:13;-1.10;99.90
48019;DHT22;33786;48.690;9.562;2024-01-16T00:11:44;-1.00;99.90
48019;DHT22;33786;48.690;9.562;2024-01-16T00:14:11;-0.90;99.90
48019;DHT22;33786;48.690;9.562;2024-01-16T00:16:45;-1.00;99.90
48019;DHT22;33786;48.690;9.562;2024-01-16T00:19:12;-1.00;99.90
48019;DHT22;33786;48.690;9.562;2024-01-16T00:21:41;-1.00;99.90
48019;DHT22;33786;48.690;9.562;2024-01-16T00:24:08;-1.00;99.90
48019;DHT22;33786;48.690;9.562;2024-01-16T00:26:35;-1.00;99.90
48019;DHT22;33786;48.690;9.562;2024-01-16T00:29:02;-1.00;99.90
48019;DHT22;33786;48.690;9.562;2024-01-16T00:31:29;-1.00;99.90
48019;DHT22;33786;48.690;9.562;2024-01-16T00:33:56;-1.00;99.90
48019;DHT22;33786;48.690;9.562;2024-01-16T00:36:23;-1.10;99.90
48019;DHT22;33786;48.690;9.562;2024-01-16T00:38:50;-1.10;99.90
48019;DHT22;33786;48.690;9.562;2024-01-16T00:41:17;-1.10;99.90
48019;DHT22;33786;48.690;9.562;2024-01-16T00:43:44;-1.00;99.90
48019;DHT22;33786;48.690;9.562;2024-01-16T00:46:11;-1.00;99.90
48019;DHT22;33786;48.690;9.562;2024-01-16T00:48:38;-1.00;99.90
48019;DHT22;33786;48.690;9.562;2024-01-16T00:51:05;-1.00;99.90
48019;DHT22;33786;48.690;9.562;2024-01-16T00:53:32;-1.00;99.90
48019;DHT22;33786;48.690;9.562;2024-01-16T00:55:59;-1.10;99.90
48019;DHT22;33786;48.690;9.562;2024-01-16T00:58:26;-1.10;99.90
48019;DHT22;33786;48.690;9.562;2024-01-16T01:00:53;-1.10;99.90
48019;DHT22;33786;48.690;9.562;2024-01-16T01:03:20;-1.10;99.90
48019;DHT22;33786;48.690;9.562;2024-01-16T01:05:47;-1.10;99.90
48019;DHT22;33786;48.690;9.562;2024-01-16T01:08:14;-1.10;99.90
48019;DHT22;33786;48.690;9.562;2024-01-16T01:10:40;-1.00;99.90
48019;DHT22;33786;48.690;9.562;2024-01-16T01:13:07;-1.10;99.90
48019;DHT22;33786;48.690;9.562;2024-01-16T01:15:34;-1.10;99.90
48019;DHT22;33786;48.690;9.562;2024-01-16T01:18:01;-1.00;99.90
48019;DHT22;33786;48.690;9.562;2024-01-16T01:20:28;-1.00;99.90
48019;DHT22;33786;48.690;9.562;2024-01-16T01:22:55;-1.00;99.90
48019;DHT22;33786;48.690;9.562;2024-01-16T01:25:22;-1.00;99.90
48019;DHT22;33786;48.690;9.562;2024-01-16T01:27:49;-1.00;99.90
48019;DHT22;33786;48.690;9.562;2024-01-16T01:30:16;-1.00;99.90
48019;DHT22;33786;48.690;9.562;2024-01-16T01:32:43;-1.10;99.90
48019;DHT22;33786;48.690;9.562;2024-01-16T01:35:10;-1.10;99.90
48019;DHT22;33786;48.690;9.562;2024-01-16T01:37:41;-1.10;99.90
48019;DHT22;33786;48.690;9.562;2024-01-16T01:40:08;-1.10;99.90
48019;DHT22;33786;48.690;9.562;2024-01-16T01:42:35;-1.10;99.90
48019;DHT22;33786;48.690;9.562;2024-01-16T01:45:02;-1.10;99.90
48019;DHT22;33786;48.690;9.562;2024-01-16T01:47:30;-1.10;99.90
48019;DHT22;33786;48.690;9.562;2024-01-16T01:49:57;-1.10;99.90
48019;DHT22;33786;48.690;9.562;2024-01-16T01:52:24;-1.00;99.90
48019;DHT22;33786;48.690;9.562;2024-01-16T01:54:51;-1.10;99.90
48019;DHT22;33786;48.690;9.562;2024-01-16T01:57:19;-1.00;99.90
48019;DHT22;33786;48.690;9.562;2024-01-16T01:59:46;-1.00;99.90
48019;DHT22;33786;48.690;9.562;2024-01-16T02:02:13;-1.10;99.90
48019;DHT22;33786;48.690;9.562;2024-01-16T02:04:41;-1.00;99.90
48019;DHT22;33786;48.690;9.562;2024-01-16T02:07:10;-1.00;99.90
48019;DHT22;33786;48.690;9.562;2024-01-16T02:09:37;-1.10;99.90
48019;DHT22;33786;48.690;9.562;2024-01-16T02:12:05;-1.10;99.90
48019;DHT22;33786;48.690;9.562;2024-01-16T02:14:33;-1.00;99.90
48019;DHT22;33786;48.690;9.562;2024-01-16T02:17:00;-1.00;99.90
48019;DHT22;33786;48.690;9.562;2024-01-16T02:19:27;-1.00;99.90
48019;DHT22;33786;48.690;9.562;2024-01-16T02:21:59;-1.00;99.90
48019;DHT22;33786;48.690;9.562;2024-01-16T02:24:26;-1.00;99.90
48019;DHT22;33786;48.690;9.562;2024-01-16T02:26:53;-1.00;99.90
48019;DHT22;33786;48.690;9.562;2024-01-16T02:29:20;-1.00;99.90
48019;DHT22;33786;48.690;9.562;2024-01-16T02:31:47;-1.00;99.90
48019;DHT22;33786;48.690;9.562;2024-01-16T02:34:14;-1.00;99.90
48019;DHT22;33786;48.690;9.562;2024-01-16T02:36:41;-0.90;99.90
48019;DHT22;33786;48.690;9.562;2024-01-16T02:39:08;-0.90;99.90
48019;DHT22;33786;48.690;9.562;2024-01-16T02:41:35;-0.80;99.90
48019;DHT22;33786;48.690;9.562;2024-01-16T02:44:02;-0.90;99.90
48019;DHT22;33786;48.690;9.562;2024-01-16T02:46:29;-0.90;99.90
48019;DHT22;33786;48.690;9.562;2024-01-16T02:48:56;-0.90;99.90
48019;DHT22;33786;48.690;9.562;2024-01-16T02:51:23;-0.90;99.90
48019;DHT22;33786;48.690;9.562;2024-01-16T02:53:49;-0.80;99.90
48019;DHT22;33786;48.690;9.562;2024-01-16T02:56:16;-0.90;99.90
48019;DHT22;33786;48.690;9.562;2024-01-16T02:58:43;-0.90;99.90
48019;DHT22;33786;48.690;9.562;2024-01-16T03:01:10;-0.90;99.90
48019;DHT22;33786;48.690;9.562;2024-01-16T03:03:36;-1.00;99.90
48019;DHT22;33786;48.690;9.562;2024-01-16T03:06:04;-1.00;99.90
48019;DHT22;33786;48.690;9.562;2024-01-16T03:08:31;-1.00;99.90
48019;DHT22;33786;48.690;9.562;2024-01-16T03:10:58;-1.00;99.90
48019;DHT22;33786;48.690;9.562;2024-01-16T03:13:25;-1.00;99.90
48019;DHT22;33786;48.690;9.562;2024-01-16T03:15:52;-0.90;99.90
48019;DHT22;33786;48.690;9.562;2024-01-16T03:18:18;-1.00;99.90
48019;DHT22;33786;48.690;9.562;2024-01-16T03:20:45;-1.10;99.90
48019;DHT22;33786;48.690;9.562;2024-01-16T03:23:12;-1.10;99.90
48019;DHT22;33786;48.690;9.562;2024-01-16T03:25:40;-1.10;99.90
48019;DHT22;33786;48.690;9.562;2024-01-16T03:28:07;-1.00;99.90
48019;DHT22;33786;48.690;9.562;2024-01-16T03:30:34;-1.10;99.90
48019;DHT22;33786;48.690;9.562;2024-01-16T03:33:02;-1.10;99.90
48019;DHT22;33786;48.690;9.562;2024-01-16T03:35:30;-1.00;99.90
48019;DHT22;33786;48.690;9.562;2024-01-16T03:37:57;-0.90;99.90
48019;DHT22;33786;48.690;9.562;2024-01-16T03:40:23;-0.90;99.90
48019;DHT22;33786;48.690;9.562;2024-01-16T03:42:50;-0.90;99.90
48019;DHT22;33786;48.690;9.562;2024-01-16T03:45:17;-0.80;99.90
48019;DHT22;33786;48.690;9.562;2024-01-16T03:47:44;-0.90;99.90
48019;DHT22;33786;48.690;9.562;2024-01-16T03:50:12;-0.90;99.90
48019;DHT22;33786;48.690;9.562;2024-01-16T03:52:38;-0.90;99.90
48019;DHT22;33786;48.690;9.562;2024-01-16T03:55:05;-0.90;99.90
48019;DHT22;33786;48.690;9.562;2024-01-16T03:57:32;-1.00;99.90
48019;DHT22;33786;48.690;9.562;2024-01-16T03:59:59;-0.80;99.90
48019;DHT22;33786;48.690;9.562;2024-01-16T04:02:26;-0.90;99.90
48019;DHT22;33786;48.690;9.562;2024-01-16T04:04:53;-0.90;99.90
48019;DHT22;33786;48.690;9.562;2024-01-16T04:07:23;-0.40;99.90
48019;DHT22;33786;48.690;9.562;2024-01-16T04:09:51;-1.00;99.90
48019;DHT22;33786;48.690;9.562;2024-01-16T04:12:18;-1.10;99.90
48019;DHT22;33786;48.690;9.562;2024-01-16T04:14:45;-1.10;99.90
48019;DHT22;33786;48.690;9.562;2024-01-16T04:17:12;-1.20;99.90
48019;DHT22;33786;48.690;9.562;2024-01-16T04:19:39;-1.20;99.90
48019;DHT22;33786;48.690;9.562;2024-01-16T04:22:06;-1.20;99.90
48019;DHT22;33786;48.690;9.562;2024-01-16T04:24:33;-1.10;99.90
48019;DHT22;33786;48.690;9.562;2024-01-16T04:27:00;-1.10;99.90
48019;DHT22;33786;48.690;9.562;2024-01-16T04:29:26;-1.30;99.90
48019;DHT22;33786;48.690;9.562;2024-01-16T04:31:53;-1.40;99.90
48019;DHT22;33786;48.690;9.562;2024-01-16T04:34:20;-1.40;99.90
48019;DHT22;33786;48.690;9.562;2024-01-16T04:36:48;-1.50;99.90
48019;DHT22;33786;48.690;9.562;2024-01-16T04:39:15;-1.50;99.90
48019;DHT22;33786;48.690;9.562;2024-01-16T04:41:42;-1.60;99.90
48019;DHT22;33786;48.690;9.562;2024-01-16T04:44:09;-1.70;99.90
48019;DHT22;33786;48.690;9.562;2024-01-16T04:46:36;-1.70;99.90
48019;DHT22;33786;48.690;9.562;2024-01-16T04:49:02;-1.80;99.90
48019;DHT22;33786;48.690;9.562;2024-01-16T04:51:29;-1.90;99.90
48019;DHT22;33786;48.690;9.562;2024-01-16T04:53:56;-2.00;99.90
48019;DHT22;33786;48.690;9.562;2024-01-16T04:56:23;-2.10;99.90
48019;DHT22;33786;48.690;9.562;2024-01-16T04:58:50;-2.30;99.90
48019;DHT22;33786;48.690;9.562;2024-01-16T05:01:17;-2.40;99.90
48019;DHT22;33786;48.690;9.562;2024-01-16T05:03:44;-2.50;99.90
48019;DHT22;33786;48.690;9.562;2024-01-16T05:06:15;-2.60;99.90
48019;DHT22;33786;48.690;9.562;2024-01-16T05:08:43;-2.60;99.90
48019;DHT22;33786;48.690;9.562;2024-01-16T05:11:10;-2.70;99.90
48019;DHT22;33786;48.690;9.562;2024-01-16T05:13:37;-2.80;99.90
48019;DHT22;33786;48.690;9.562;2024-01-16T05:16:04;-2.90;99.90
48019;DHT22;33786;48.690;9.562;2024-01-16T05:18:31;-2.90;99.90
48019;DHT22;33786;48.690;9.562;2024-01-16T05:20:59;-3.00;99.90
48019;DHT22;33786;48.690;9.562;2024-01-16T05:23:26;-3.00;99.90
48019;DHT22;33786;48.690;9.562;2024-01-16T05:25:54;-3.10;99.90
48019;DHT22;33786;48.690;9.562;2024-01-16T05:28:21;-3.20;99.90
48019;DHT22;33786;48.690;9.562;2024-01-16T05:30:47;-3.20;99.90
48019;DHT22;33786;48.690;9.562;2024-01-16T05:33:14;-3.30;99.90
48019;DHT22;33786;48.690;9.562;2024-01-16T05:35:42;-3.40;99.90
48019;DHT22;33786;48.690;9.562;2024-01-16T05:38:09;-3.50;99.90
48019;DHT22;33786;48.690;9.562;2024-01-16T05:40:39;-3.50;99.90
48019;DHT22;33786;48.690;9.562;2024-01-16T05:43:06;-3.60;99.90
48019;DHT22;33786;48.690;9.562;2024-01-16T05:45:33;-3.70;99.90
48019;DHT22;33786;48.690;9.562;2024-01-16T05:48:00;-2.90;99.90
48019;DHT22;33786;48.690;9.562;2024-01-16T05:50:27;-3.70;99.90
48019;DHT22;33786;48.690;9.562;2024-01-16T05:52:55;-3.70;99.90
48019;DHT22;33786;48.690;9.562;2024-01-16T05:55:21;-3.70;99.90
48019;DHT22;33786;48.690;9.562;2024-01-16T05:57:48;-3.70;99.90
48019;DHT22;33786;48.690;9.562;2024-01-16T06:00:15;-3.70;99.90
48019;DHT22;33786;48.690;9.562;2024-01-16T06:02:44;-3.70;99.90
48019;DHT22;33786;48.690;9.562;2024-01-16T06:05:11;-3.70;99.90
48019;DHT22;33786;48.690;9.562;2024-01-16T06:07:38;-3.70;99.90
48019;DHT22;33786;48.690;9.562;2024-01-16T06:10:06;-3.70;99.90
48019;DHT22;33786;48.690;9.562;2024-01-16T06:12:34;-3.80;99.90
48019;DHT22;33786;48.690;9.562;2024-01-16T06:15:01;-3.80;99.90
48019;DHT22;33786;48.690;9.562;2024-01-16T06:17:29;-3.80;99.90
48019;DHT22;33786;48.690;9.562;2024-01-16T06:19:56;-3.80;99.90
48019;DHT22;33786;48.690;9.562;2024-01-16T06:22:22;-3.80;99.90
48019;DHT22;33786;48.690;9.562;2024-01-16T06:24:49;-3.80;99.90
48019;DHT22;33786;48.690;9.562;2024-01-16T06:27:16;-3.80;99.90
48019;DHT22;33786;48.690;9.562;2024-01-16T06:29:46;-3.80;99.90
48019;DHT22;33786;48.690;9.562;2024-01-16T06:32:13;-3.80;99.90
48019;DHT22;33786;48.690;9.562;2024-01-16T06:34:40;-3.80;99.90
48019;DHT22;33786;48.690;9.562;2024-01-16T06:37:07;-3.80;99.90
48019;DHT22;33786;48.690;9.562;2024-01-16T06:39:35;-3.80;99.90
48019;DHT22;33786;48.690;9.562;2024-01-16T06:42:02;-3.80;99.90
48019;DHT22;33786;48.690;9.562;2024-01-16T06:44:35;-3.80;99.90
48019;DHT22;33786;48.690;9.562;2024-01-16T06:47:02;-3.80;99.90
48019;DHT22;33786;48.690;9.562;2024-01-16T06:49:28;-3.80;99.90
48019;DHT22;33786;48.690;9.562;2024-01-16T06:51:55;-3.80;99.90
48019;DHT22;33786;48.690;9.562;2024-01-16T06:54:23;-3.80;99.90
48019;DHT22;33786;48.690;9.562;2024-01-16T06:56:50;-3.80;99.90
48019;DHT22;33786;48.690;9.562;2024-01-16T06:59:18;-3.80;99.90
48019;DHT22;33786;48.690;9.562;2024-01-16T07:01:46;-3.70;99.90
48019;DHT22;33786;48.690;9.562;2024-01-16T07:04:13;-3.80;99.90
48019;DHT22;33786;48.690;9.562;2024-01-16T07:06:43;-3.80;99.90
48019;DHT22;33786;48.690;9.562;2024-01-16T07:09:10;-3.90;99.90
48019;DHT22;33786;48.690;9.562;2024-01-16T07:11:38;-3.80;99.90
48019;DHT22;33786;48.690;9.562;2024-01-16T07:14:09;-3.80;99.90
48019;DHT22;33786;48.690;9.562;2024-01-16T07:16:37;-3.80;99.90
48019;DHT22;33786;48.690;9.562;2024-01-16T07:19:04;-3.80;99.90
48019;DHT22;33786;48.690;9.562;2024-01-16T07:21:31;-3.70;99.90
48019;DHT22;33786;48.690;9.562;2024-01-16T07:23:58;-3.70;99.90
48019;DHT22;33786;48.690;9.562;2024-01-16T07:26:25;-3.70;99.90
48019;DHT22;33786;48.690;9.562;2024-01-16T07:28:52;-3.60;99.90
48019;DHT22;33786;48.690;9.562;2024-01-16T07:31:19;-3.60;99.90
48019;DHT22;33786;48.690;9.562;2024-01-16T07:33:46;-3.60;99.90
48019;DHT22;33786;48.690;9.562;2024-01-16T07:36:13;-3.60;99.90
48019;DHT22;33786;48.690;9.562;2024-01-16T07:38:40;-3.50;99.90
48019;DHT22;33786;48.690;9.562;2024-01-16T07:41:07;-3.50;99.90
48019;DHT22;33786;48.690;9.562;2024-01-16T07:43:34;-3.50;99.90
48019;DHT22;33786;48.690;9.562;2024-01-16T07:46:02;-3.50;99.90
48019;DHT22;33786;48.690;9.562;2024-01-16T07:48:29;-3.40;99.90
48019;DHT22;33786;48.690;9.562;2024-01-16T07:50:56;-3.30;99.90
48019;DHT22;33786;48.690;9.562;2024-01-16T07:53:23;-3.20;99.90
48019;DHT22;33786;48.690;9.562;2024-01-16T07:55:54;-3.00;99.90
48019;DHT22;33786;48.690;9.562;2024-01-16T07:58:21;-2.90;99.90
48019;DHT22;33786;48.690;9.562;2024-01-16T08:00:48;-2.80;99.90
48019;DHT22;33786;48.690;9.562;2024-01-16T08:03:15;-2.70;99.90
48019;DHT22;33786;48.690;9.562;2024-01-16T08:05:43;-2.50;99.90
48019;DHT22;33786;48.690;9.562;2024-01-16T08:08:10;-2.30;99.90
48019;DHT22;33786;48.690;9.562;2024-01-16T08:10:37;-2.20;99.90
48019;DHT22;33786;48.690;9.562;2024-01-16T08:13:04;-2.40;99.90
48019;DHT22;33786;48.690;9.562;2024-01-16T08:15:31;-1.90;99.90
48019;DHT22;33786;48.690;9.562;2024-01-16T08:17:58;-1.70;99.90
48019;DHT22;33786;48.690;9.562;2024-01-16T08:20:25;-1.50;99.90
48019;DHT22;33786;48.690;9.562;2024-01-16T08:22:53;-1.30;99.90
48019;DHT22;33786;48.690;9.562;2024-01-16T08:25:20;-1.10;99.90
48019;DHT22;33786;48.690;9.562;2024-01-16T08:27:47;-0.90;99.90
48019;DHT22;33786;48.690;9.562;2024-01-16T08:30:14;-0.70;99.90
48019;DHT22;33786;48.690;9.562;2024-01-16T08:32:41;-0.40;99.90
48019;DHT22;33786;48.690;9.562;2024-01-16T08:35:08;0.00;99.90
48019;DHT22;33786;48.690;9.562;2024-01-16T08:37:35;0.30;99.90
48019;DHT22;33786;48.690;9.562;2024-01-16T08:40:02;0.90;99.90
48019;DHT22;33786;48.690;9.562;2024-01-16T08:42:31;1.40;99.30
48019;DHT22;33786;48.690;9.562;2024-01-16T08:44:58;1.90;98.40
48019;DHT22;33786;48.690;9.562;2024-01-16T08:47:25;2.00;97.80
48019;DHT22;33786;48.690;9.562;2024-01-16T08:49:52;2.10;97.60
48019;DHT22;33786;48.690;9.562;2024-01-16T08:52:19;2.00;97.50
48019;DHT22;33786;48.690;9.562;2024-01-16T08:54:46;1.80;97.40
48019;DHT22;33786;48.690;9.562;2024-01-16T08:57:15;1.60;97.50
48019;DHT22;33786;48.690;9.562;2024-01-16T08:59:44;1.40;97.20
48019;DHT22;33786;48.690;9.562;2024-01-16T09:02:11;1.30;97.20
48019;DHT22;33786;48.690;9.562;2024-01-16T09:04:39;1.20;97.30
48019;DHT22;33786;48.690;9.562;2024-01-16T09:07:06;1.10;97.50
48019;DHT22;33786;48.690;9.562;2024-01-16T09:09:33;1.10;97.80
48019;DHT22;33786;48.690;9.562;2024-01-16T09:12:00;1.00;97.80
48019;DHT22;33786;48.690;9.562;2024-01-16T09:14:27;1.00;97.70
48019;DHT22;33786;48.690;9.562;2024-01-16T09:16:54;1.10;97.50
48019;DHT22;33786;48.690;9.562;2024-01-16T09:19:21;1.10;97.40
48019;DHT22;33786;48.690;9.562;2024-01-16T09:21:48;1.10;97.10
48019;DHT22;33786;48.690;9.562;2024-01-16T09:24:15;1.20;97.00
48019;DHT22;33786;48.690;9.562;2024-01-16T09:26:42;1.10;96.90
48019;DHT22;33786;48.690;9.562;2024-01-16T09:29:10;1.20;96.90
48019;DHT22;33786;48.690;9.562;2024-01-16T09:31:37;1.20;96.80
48019;DHT22;33786;48.690;9.562;2024-01-16T09:34:04;1.30;96.70
48019;DHT22;33786;48.690;9.562;2024-01-16T09:36:35;1.40;96.30
48019;DHT22;33786;48.690;9.562;2024-01-16T09:39:05;1.30;96.50
48019;DHT22;33786;48.690;9.562;2024-01-16T09:41:35;1.40;96.00
48019;DHT22;33786;48.690;9.562;2024-01-16T09:44:03;1.60;96.20
48019;DHT22;33786;48.690;9.562;2024-01-16T09:46:31;1.60;95.70
48019;DHT22;33786;48.690;9.562;2024-01-16T09:49:00;1.60;95.80
48019;DHT22;33786;48.690;9.562;2024-01-16T09:51:29;1.50;95.60
48019;DHT22;33786;48.690;9.562;2024-01-16T09:53:56;1.60;95.80
48019;DHT22;33786;48.690;9.562;2024-01-16T09:56:24;2.10;95.90
48019;DHT22;33786;48.690;9.562;2024-01-16T09:58:57;2.50;94.50
48019;DHT22;33786;48.690;9.562;2024-01-16T10:01:27;3.10;94.00
48019;DHT22;33786;48.690;9.562;2024-01-16T10:03:55;3.80;93.50
48019;DHT22;33786;48.690;9.562;2024-01-16T10:06:23;4.50;92.30
48019;DHT22;33786;48.690;9.562;2024-01-16T10:08:50;5.10;90.60
48019;DHT22;33786;48.690;9.562;2024-01-16T10:11:17;5.00;90.30
48019;DHT22;33786;48.690;9.562;2024-01-16T10:13:44;4.90;90.30
48019;DHT22;33786;48.690;9.562;2024-01-16T10:16:11;5.00;89.30
48019;DHT22;33786;48.690;9.562;2024-01-16T10:18:38;5.20;88.90
48019;DHT22;33786;48.690;9.562;2024-01-16T10:21:22;5.50;88.90
48019;DHT22;33786;48.690;9.562;2024-01-16T10:23:49;6.20;86.50
48019;DHT22;33786;48.690;9.562;2024-01-16T10:26:16;6.30;85.90
48019;DHT22;33786;48.690;9.562;2024-01-16T10:28:45;6.00;86.50
48019;DHT22;33786;48.690;9.562;2024-01-16T10:31:13;5.60;86.20
48019;DHT22;33786;48.690;9.562;2024-01-16T10:33:43;5.60;86.20
48019;DHT22;33786;48.690;9.562;2024-01-16T10:36:15;5.80;86.70
48019;DHT22;33786;48.690;9.562;2024-01-16T10:38:47;6.30;84.30
48019;DHT22;33786;48.690;9.562;2024-01-16T10:41:15;6.70;83.40
48019;DHT22;33786;48.690;9.562;2024-01-16T10:43:44;7.10;83.40
48019;DHT22;33786;48.690;9.562;2024-01-16T10:46:17;7.70;81.20
48019;DHT22;33786;48.690;9.562;2024-01-16T10:49:03;8.30;79.00
48019;DHT22;33786;48.690;9.562;2024-01-16T10:51:31;9.80;76.50
48019;DHT22;33786;48.690;9.562;2024-01-16T10:54:00;10.60;73.20
48019;DHT22;33786;48.690;9.562;2024-01-16T10:56:28;10.00;73.40
48019;DHT22;33786;48.690;9.562;2024-01-16T11:01:28;9.20;75.00
48019;DHT22;33786;48.690;9.562;2024-01-16T11:03:56;10.50;73.10
48019;DHT22;33786;48.690;9.562;2024-01-16T11:06:24;12.00;69.20
48019;DHT22;33786;48.690;9.562;2024-01-16T11:08:52;13.30;65.60
48019;DHT22;33786;48.690;9.562;2024-01-16T11:11:20;13.40;64.80
48019;DHT22;33786;48.690;9.562;2024-01-16T11:13:49;12.00;65.60
48019;DHT22;33786;48.690;9.562;2024-01-16T11:16:17;10.60;66.30
48019;DHT22;33786;48.690;9.562;2024-01-16T11:18:45;9.50;69.30
48019;DHT22;33786;48.690;9.562;2024-01-16T11:21:14;8.60;70.60
48019;DHT22;33786;48.690;9.562;2024-01-16T11:23:45;7.80;71.50
48019;DHT22;33786;48.690;9.562;2024-01-16T11:26:31;7.70;72.10
48019;DHT22;33786;48.690;9.562;2024-01-16T11:31:53;9.70;68.80
48019;DHT22;33786;48.690;9.562;2024-01-16T11:37:16;11.80;64.30
48019;DHT22;33786;48.690;9.562;2024-01-16T11:42:52;13.00;62.80
48019;DHT22;33786;48.690;9.562;2024-01-16T11:48:11;11.00;64.80
48019;DHT22;33786;48.690;9.562;2024-01-16T11:50:39;11.00;65.20
48019;DHT22;33786;48.690;9.562;2024-01-16T11:53:06;11.40;64.40
48019;DHT22;33786;48.690;9.562;2024-01-16T12:01:20;12.00;63.70
48019;DHT22;33786;48.690;9.562;2024-01-16T12:04:05;12.00;63.00
48019;DHT22;33786;48.690;9.562;2024-01-16T12:06:33;12.30;61.90
48019;DHT22;33786;48.690;9.562;2024-01-16T12:09:17;12.30;62.10
48019;DHT22;33786;48.690;9.562;2024-01-16T12:11:55;12.30;62.40
48019;DHT22;33786;48.690;9.562;2024-01-16T12:14:24;12.40;61.50
48019;DHT22;33786;48.690;9.562;2024-01-16T12:16:51;12.30;61.30
48019;DHT22;33786;48.690;9.562;2024-01-16T12:19:18;12.10;61.80
48019;DHT22;33786;48.690;9.562;2024-01-16T12:21:45;11.40;62.20
48019;DHT22;33786;48.690;9.562;2024-01-16T12:24:12;11.70;63.40
48019;DHT22;33786;48.690;9.562;2024-01-16T12:26:44;11.90;63.30
48019;DHT22;33786;48.690;9.562;2024-01-16T12:29:11;11.70;61.90
48019;DHT22;33786;48.690;9.562;2024-01-16T12:31:38;10.60;62.50
48019;DHT22;33786;48.690;9.562;2024-01-16T12:34:06;10.40;62.90
48019;DHT22;33786;48.690;9.562;2024-01-16T12:36:37;9.40;65.50
48019;DHT22;33786;48.690;9.562;2024-01-16T12:39:05;8.70;66.60
48019;DHT22;33786;48.690;9.562;2024-01-16T12:41:42;8.10;67.40
48019;DHT22;33786;48.690;9.562;2024-01-16T12:44:10;7.90;67.90
48019;DHT22;33786;48.690;9.562;2024-01-16T12:46:46;7.30;69.60
48019;DHT22;33786;48.690;9.562;2024-01-16T12:49:20;6.90;69.20
48019;DHT22;33786;48.690;9.562;2024-01-16T12:51:47;6.50;70.90
48019;DHT22;33786;48.690;9.562;2024-01-16T12:54:16;6.60;71.80
48019;DHT22;33786;48.690;9.562;2024-01-16T12:56:44;6.80;72.40
48019;DHT22;33786;48.690;9.562;2024-01-16T12:59:12;6.60;72.30
48019;DHT22;33786;48.690;9.562;2024-01-16T13:01:44;6.80;71.20
48019;DHT22;33786;48.690;9.562;2024-01-16T13:04:11;6.10;71.80
48019;DHT22;33786;48.690;9.562;2024-01-16T13:06:38;5.80;73.40
48019;DHT22;33786;48.690;9.562;2024-01-16T13:09:10;5.80;74.00
48019;DHT22;33786;48.690;9.562;2024-01-16T13:11:54;5.90;74.10
48019;DHT22;33786;48.690;9.562;2024-01-16T13:14:25;6.00;74.30
48019;DHT22;33786;48.690;9.562;2024-01-16T13:16:53;5.80;75.20
48019;DHT22;33786;48.690;9.562;2024-01-16T13:19:23;5.80;75.90
48019;DHT22;33786;48.690;9.562;2024-01-16T13:21:50;5.20;74.80
48019;DHT22;33786;48.690;9.562;2024-01-16T13:24:17;4.60;75.70
48019;DHT22;33786;48.690;9.562;2024-01-16T13:26:48;4.30;76.60
48019;DHT22;33786;48.690;9.562;2024-01-16T13:29:15;4.20;77.50
48019;DHT22;33786;48.690;9.562;2024-01-16T13:31:42;4.00;77.50
48019;DHT22;33786;48.690;9.562;2024-01-16T13:34:10;3.80;79.40
48019;DHT22;33786;48.690;9.562;2024-01-16T13:36:37;3.50;79.70
48019;DHT22;33786;48.690;9.562;2024-01-16T13:39:24;3.30;80.50
48019;DHT22;33786;48.690;9.562;2024-01-16T13:41:52;3.50;79.80
48019;DHT22;33786;48.690;9.562;2024-01-16T13:44:19;3.80;79.10
48019;DHT22;33786;48.690;9.562;2024-01-16T13:46:46;4.20;78.20
48019;DHT22;33786;48.690;9.562;2024-01-16T13:49:31;4.30;78.40
48019;DHT22;33786;48.690;9.562;2024-01-16T13:52:00;4.40;77.80
48019;DHT22;33786;48.690;9.562;2024-01-16T13:54:27;4.70;77.00
48019;DHT22;33786;48.690;9.562;2024-01-16T13:56:54;4.70;77.30
48019;DHT22;33786;48.690;9.562;2024-01-16T13:59:33;4.50;77.40
48019;DHT22;33786;48.690;9.562;2024-01-16T14:02:01;4.40;77.00
48019;DHT22;33786;48.690;9.562;2024-01-16T14:04:29;4.30;77.20
48019;DHT22;33786;48.690;9.562;2024-01-16T14:06:56;3.90;77.30
48019;DHT22;33786;48.690;9.562;2024-01-16T14:09:39;3.80;78.70
48019;DHT22;33786;48.690;9.562;2024-01-16T14:12:09;3.80;79.00
48019;DHT22;33786;48.690;9.562;2024-01-16T14:14:36;4.00;78.30
48019;DHT22;33786;48.690;9.562;2024-01-16T14:17:05;3.90;77.60
48019;DHT22;33786;48.690;9.562;2024-01-16T14:19:35;3.80;77.90
48019;DHT22;33786;48.690;9.562;2024-01-16T14:22:03;3.70;77.20
48019;DHT22;33786;48.690;9.562;2024-01-16T14:24:30;3.70;77.30
48019;DHT22;33786;48.690;9.562;2024-01-16T14:26:57;4.40;78.20
48019;DHT22;33786;48.690;9.562;2024-01-16T14:29:24;3.80;78.80
48019;DHT22;33786;48.690;9.562;2024-01-16T14:31:51;3.60;78.30
48019;DHT22;33786;48.690;9.562;2024-01-16T14:34:18;3.80;78.70
48019;DHT22;33786;48.690;9.562;2024-01-16T14:36:46;3.80;77.90
48019;DHT22;33786;48.690;9.562;2024-01-16T14:39:13;3.70;77.40
48019;DHT22;33786;48.690;9.562;2024-01-16T14:41:44;3.70;77.70
48019;DHT22;33786;48.690;9.562;2024-01-16T14:44:12;3.40;78.30
48019;DHT22;33786;48.690;9.562;2024-01-16T14:46:44;3.30;80.00
48019;DHT22;33786;48.690;9.562;2024-01-16T14:49:15;3.10;80.40
48019;DHT22;33786;48.690;9.562;2024-01-16T14:51:43;3.00;79.90
48019;DHT22;33786;48.690;9.562;2024-01-16T14:54:10;2.80;80.60
48019;DHT22;33786;48.690;9.562;2024-01-16T14:56:37;2.70;80.50
48019;DHT22;33786;48.690;9.562;2024-01-16T14:59:04;2.70;81.20
48019;DHT22;33786;48.690;9.562;2024-01-16T15:01:31;2.60;81.90
48019;DHT22;33786;48.690;9.562;2024-01-16T15:03:58;2.60;82.30
48019;DHT22;33786;48.690;9.562;2024-01-16T15:06:26;2.60;82.80
48019;DHT22;33786;48.690;9.562;2024-01-16T15:08:54;2.50;82.80
48019;DHT22;33786;48.690;9.562;2024-01-16T15:11:22;2.40;83.40
48019;DHT22;33786;48.690;9.562;2024-01-16T15:13:49;2.80;84.10
48019;DHT22;33786;48.690;9.562;2024-01-16T15:16:16;2.20;83.70
48019;DHT22;33786;48.690;9.562;2024-01-16T15:18:45;2.10;84.00
48019;DHT22;33786;48.690;9.562;2024-01-16T15:21:13;2.00;84.90
48019;DHT22;33786;48.690;9.562;2024-01-16T15:23:41;1.90;84.70
48019;DHT22;33786;48.690;9.562;2024-01-16T15:26:08;1.80;85.20
48019;DHT22;33786;48.690;9.562;2024-01-16T15:28:34;1.70;86.10
48019;DHT22;33786;48.690;9.562;2024-01-16T15:31:01;1.60;88.00
48019;DHT22;33786;48.690;9.562;2024-01-16T15:33:34;1.50;87.70
48019;DHT22;33786;48.690;9.562;2024-01-16T15:36:03;1.30;88.80
48019;DHT22;33786;48.690;9.562;2024-01-16T15:38:30;1.20;89.00
48019;DHT22;33786;48.690;9.562;2024-01-16T15:40:58;1.00;89.00
48019;DHT22;33786;48.690;9.562;2024-01-16T15:43:25;1.00;89.70
48019;DHT22;33786;48.690;9.562;2024-01-16T15:45:52;0.70;90.10
48019;DHT22;33786;48.690;9.562;2024-01-16T15:48:19;0.50;90.50
48019;DHT22;33786;48.690;9.562;2024-01-16T15:50:46;0.40;90.70
48019;DHT22;33786;48.690;9.562;2024-01-16T15:53:13;0.30;91.40
48019;DHT22;33786;48.690;9.562;2024-01-16T15:55:43;0.10;92.00
48019;DHT22;33786;48.690;9.562;2024-01-16T15:58:10;-0.10;92.00
48019;DHT22;33786;48.690;9.562;2024-01-16T16:00:37;-0.30;92.40
48019;DHT22;33786;48.690;9.562;2024-01-16T16:03:04;-0.40;93.00